Time;durP1;ratioP1;P1;durP2;ratioP2;P2;SDS_P1;SDS_P2;PMS_P1;PMS_P2;Temp;Humidity;BMP_temperature;BMP_pressure;BME280_temperature;BME280_humidity;BME280_pressure;Samples;Min_cycle;Max_cycle;Signal;HPM_P1;HPM_P2
2024/03/31 06:07:00;;;;;;;27.17;6.38;;;;;;;5.71;100.00;94924.28;2093861;28;20595;-63
2024/03/31 06:55:10;;;;;;;61.40;8.00;;;;;;;6.38;100.00;94880.06;2077472;28;20581;-65
2024/03/31 06:57:22;;;;;;;173.50;13.25;;;;;;;6.75;100.00;94879.72;2092793;27;20582;-65
2024/03/31 06:59:30;;;;;;;106.13;9.90;;;;;;;6.82;100.00;94877.63;2091124;28;20577;-65
2024/03/31 07:00:31;;;;;;;36.03;6.67;;;;;;;7.03;100.00;94876.38;2083721;28;20214;-65
2024/03/31 07:02:52;;;;;;;123.45;10.00;;;;;;;7.01;100.00;94875.63;2084202;28;20556;-64
2024/03/31 07:05:08;;;;;;;195.85;13.60;;;;;;;6.88;100.00;94866.88;2073307;28;21299;-65
2024/03/31 07:06:08;;;;;;;131.13;10.90;;;;;;;7.18;100.00;94860.81;2058845;28;20570;-68
2024/03/31 07:07:08;;;;;;;255.87;13.70;;;;;;;7.18;100.00;94868.59;2050966;28;20666;-65
2024/03/31 07:08:09;;;;;;;94.93;8.50;;;;;;;7.50;100.00;94863.22;2065462;28;20224;-65
2024/03/31 07:09:09;;;;;;;79.27;6.63;;;;;;;7.79;100.00;94861.44;2072434;28;20296;-64
2024/03/31 07:10:10;;;;;;;51.47;6.70;;;;;;;7.76;100.00;94861.63;2061968;28;20320;-64
2024/03/31 07:11:10;;;;;;;57.73;5.33;;;;;;;7.60;100.00;94863.50;2045818;28;20220;-64
2024/03/31 07:12:11;;;;;;;55.07;6.10;;;;;;;7.91;100.00;94859.00;2045941;28;20247;-65
2024/03/31 07:13:12;;;;;;;44.93;5.43;;;;;;;8.03;100.00;94857.41;2046637;28;20208;-64
2024/03/31 07:14:13;;;;;;;26.98;4.78;;;;;;;8.21;100.00;94864.03;2047913;28;20542;-65
2024/03/31 07:15:13;;;;;;;20.20;4.13;;;;;;;8.45;100.00;94869.44;2048328;28;20223;-65
2024/03/31 07:16:14;;;;;;;21.20;4.00;;;;;;;8.42;100.00;94867.03;2065435;28;20236;-65
2024/03/31 07:17:14;;;;;;;17.70;3.87;;;;;;;8.56;100.00;94866.19;2061883;28;20198;-64
2024/03/31 07:18:15;;;;;;;31.03;3.90;;;;;;;8.74;100.00;94866.72;2046920;28;21138;-65
2024/03/31 07:19:15;;;;;;;27.37;4.53;;;;;;;8.88;100.00;94868.44;2055667;28;20214;-65
2024/03/31 07:20:16;;;;;;;9.00;2.53;;;;;;;8.70;100.00;94865.28;2055219;28;20257;-64
2024/03/31 07:21:16;;;;;;;16.13;3.43;;;;;;;8.38;100.00;94865.56;2041194;29;20224;-64
2024/03/31 07:22:17;;;;;;;14.03;4.00;;;;;;;8.69;100.00;94867.97;2043259;29;20461;-64
2024/03/31 07:23:17;;;;;;;16.60;3.90;;;;;;;8.68;100.00;94866.31;2044671;28;20223;-64
2024/03/31 07:24:18;;;;;;;14.90;3.67;;;;;;;8.63;100.00;94866.59;2047195;28;20251;-64
2024/03/31 07:25:18;;;;;;;28.23;3.73;;;;;;;8.23;100.00;94869.13;2048002;28;20607;-64
2024/03/31 07:26:19;;;;;;;11.33;3.20;;;;;;;8.11;100.00;94870.75;2049006;28;20219;-65
2024/03/31 07:27:19;;;;;;;11.13;3.80;;;;;;;8.11;100.00;94879.41;2048116;28;20211;-64
2024/03/31 07:28:20;;;;;;;17.20;4.57;;;;;;;8.32;100.00;94882.38;2046527;29;20221;-64
2024/03/31 07:29:20;;;;;;;17.67;4.00;;;;;;;8.28;100.00;94880.09;2048209;28;20713;-64
2024/03/31 07:30:21;;;;;;;19.63;4.50;;;;;;;8.21;100.00;94879.63;2050658;28;20854;-64
2024/03/31 07:31:22;;;;;;;11.20;3.57;;;;;;;8.49;100.00;94878.75;2051675;28;20621;-65
2024/03/31 07:32:22;;;;;;;14.23;3.97;;;;;;;8.78;100.00;94881.22;2046519;28;20216;-64
2024/03/31 07:33:23;;;;;;;18.17;4.00;;;;;;;8.74;100.00;94881.53;2046391;28;20210;-64
2024/03/31 07:34:23;;;;;;;14.20;4.60;;;;;;;8.47;100.00;94885.00;2046033;28;20220;-65
2024/03/31 07:35:24;;;;;;;12.00;3.60;;;;;;;8.41;100.00;94878.38;2047931;28;20219;-65
2024/03/31 07:36:24;;;;;;;14.87;4.50;;;;;;;8.28;100.00;94886.13;2045784;29;20216;-65
2024/03/31 07:37:25;;;;;;;13.20;4.33;;;;;;;8.57;100.00;94880.84;2045638;28;20569;-65
2024/03/31 07:38:26;;;;;;;16.90;4.10;;;;;;;8.05;100.00;94889.31;2047829;28;21294;-65
2024/03/31 07:39:26;;;;;;;17.60;4.90;;;;;;;8.03;100.00;94891.22;2048615;28;20207;-65
2024/03/31 07:40:27;;;;;;;17.53;4.10;;;;;;;8.03;100.00;94896.41;2047781;28;20215;-64
2024/03/31 07:41:27;;;;;;;12.33;4.13;;;;;;;8.10;100.00;94892.47;2047159;28;20219;-64
2024/03/31 07:42:28;;;;;;;13.47;4.93;;;;;;;7.85;100.00;94888.81;2043463;29;20204;-64
2024/03/31 07:43:28;;;;;;;18.13;4.37;;;;;;;7.80;100.00;94888.28;2045272;29;20222;-64
2024/03/31 07:44:29;;;;;;;22.03;5.07;;;;;;;7.90;100.00;94884.16;2045416;28;20556;-64
2024/03/31 07:45:30;;;;;;;13.33;4.53;;;;;;;8.06;100.00;94876.22;2045604;29;20685;-64
2024/03/31 07:46:31;;;;;;;16.83;5.53;;;;;;;7.99;100.00;94883.59;2046132;29;20302;-64
2024/03/31 07:47:33;;;;;;;18.90;5.20;;;;;;;8.03;100.00;94876.44;2041122;28;20861;-64
2024/03/31 07:48:33;;;;;;;19.52;4.80;;;;;;;7.96;100.00;94885.53;2047651;28;20238;-64
2024/03/31 07:49:34;;;;;;;20.07;5.53;;;;;;;7.99;100.00;94880.16;2045587;28;20223;-64
2024/03/31 07:50:34;;;;;;;21.97;6.00;;;;;;;8.35;100.00;94883.97;2055129;28;20365;-64
2024/03/31 07:51:35;;;;;;;16.03;6.70;;;;;;;8.61;100.00;94878.91;2048867;28;20211;-64
2024/03/31 07:52:38;;;;;;;25.30;6.40;;;;;;;8.65;100.00;94875.16;2046245;28;20276;-65
2024/03/31 07:53:38;;;;;;;21.90;5.22;;;;;;;8.77;100.00;94873.50;2054754;28;20197;-65
2024/03/31 07:54:38;;;;;;;22.33;5.40;;;;;;;9.32;100.00;94864.63;2055294;28;20892;-65
2024/03/31 07:55:39;;;;;;;24.03;4.83;;;;;;;9.44;100.00;94862.94;2046962;28;20271;-65
2024/03/31 07:56:39;;;;;;;32.43;5.40;;;;;;;9.80;99.83;94863.94;2054233;28;20207;-65
2024/03/31 07:57:40;;;;;;;30.13;5.60;;;;;;;9.18;100.00;94853.47;2045905;28;20216;-65
2024/03/31 07:58:40;;;;;;;24.37;5.77;;;;;;;9.53;100.00;94845.84;2045581;28;20204;-65
2024/03/31 07:59:41;;;;;;;19.10;4.27;;;;;;;9.76;99.94;94852.06;2045491;28;20212;-64
2024/03/31 08:00:41;;;;;;;11.33;4.40;;;;;;;9.96;98.26;94839.41;2055245;28;20219;-64
2024/03/31 08:01:42;;;;;;;19.50;4.63;;;;;;;10.16;95.94;94845.81;2047740;28;20207;-66
2024/03/31 08:02:42;;;;;;;18.63;4.33;;;;;;;10.77;93.75;94837.09;2045230;28;20200;-66
2024/03/31 08:03:43;;;;;;;27.73;5.37;;;;;;;11.60;90.44;94848.25;2047120;28;20239;-66
2024/03/31 08:04:45;;;;;;;17.00;4.30;;;;;;;12.22;86.80;94833.84;2055506;28;20571;-66
2024/03/31 08:05:45;;;;;;;17.70;5.60;;;;;;;13.25;81.79;94839.47;2047825;28;20216;-65
2024/03/31 08:06:46;;;;;;;19.10;5.30;;;;;;;13.07;81.87;94844.47;2044597;29;20221;-66
2024/03/31 08:07:47;;;;;;;20.43;4.60;;;;;;;12.35;82.52;94856.41;2042359;29;20879;-64
2024/03/31 08:08:47;;;;;;;23.80;4.10;;;;;;;12.11;84.83;94859.19;2043020;29;20220;-65
2024/03/31 08:09:47;;;;;;;26.20;4.50;;;;;;;12.89;82.32;94865.16;2045758;28;20522;-65
2024/03/31 08:10:49;;;;;;;14.70;4.37;;;;;;;12.69;81.16;94870.22;2062907;28;20653;-65
2024/03/31 08:11:49;;;;;;;18.52;4.07;;;;;;;12.94;82.44;94864.75;2062105;28;20253;-65
2024/03/31 08:12:50;;;;;;;16.83;3.90;;;;;;;13.51;79.24;94873.16;2046486;28;20306;-65
2024/03/31 08:13:50;;;;;;;19.13;5.10;;;;;;;12.93;82.15;94863.94;2046242;28;20709;-65
2024/03/31 08:14:51;;;;;;;30.57;4.80;;;;;;;11.72;84.59;94883.09;2045462;28;20226;-65
2024/03/31 08:15:51;;;;;;;19.93;4.60;;;;;;;11.97;85.89;94870.75;2046612;28;20270;-64
2024/03/31 08:16:52;;;;;;;24.43;4.73;;;;;;;12.39;84.85;94870.91;2049218;28;20338;-65
2024/03/31 08:17:52;;;;;;;20.47;3.60;;;;;;;13.12;82.21;94875.53;2042658;29;20647;-65
2024/03/31 08:18:53;;;;;;;22.30;4.47;;;;;;;12.87;79.57;94865.28;2043898;29;20785;-65
2024/03/31 08:19:54;;;;;;;37.95;4.15;;;;;;;12.71;82.35;94872.75;2040477;28;20232;-65
2024/03/31 08:20:54;;;;;;;27.97;4.73;;;;;;;12.57;82.33;94877.28;2040851;29;20208;-65
2024/03/31 08:21:55;;;;;;;21.27;4.27;;;;;;;12.00;83.70;94871.34;2056584;28;20318;-65
2024/03/31 08:22:55;;;;;;;17.93;4.13;;;;;;;12.58;82.52;94870.25;2056444;28;20215;-65
2024/03/31 08:23:56;;;;;;;34.97;4.30;;;;;;;13.16;81.59;94861.22;2041264;29;20243;-65
2024/03/31 08:24:56;;;;;;;17.90;4.13;;;;;;;13.53;78.29;94856.38;2036990;28;20238;-65
2024/03/31 08:25:57;;;;;;;26.93;4.50;;;;;;;13.74;77.60;94849.38;2049166;28;20278;-67
2024/03/31 08:26:57;;;;;;;22.93;5.27;;;;;;;14.22;78.13;94854.00;2040781;29;20204;-65
2024/03/31 08:27:58;;;;;;;26.97;4.50;;;;;;;14.31;75.95;94861.06;2044129;29;20215;-64
2024/03/31 08:28:59;;;;;;;16.07;4.23;;;;;;;13.90;76.77;94859.41;2043016;29;20270;-65
2024/03/31 08:29:59;;;;;;;24.93;4.73;;;;;;;13.64;78.93;94849.38;2040727;28;20677;-65
2024/03/31 08:31:00;;;;;;;23.37;4.90;;;;;;;14.11;78.84;94854.91;2041079;29;20303;-65
2024/03/31 08:32:00;;;;;;;23.00;4.43;;;;;;;15.05;76.78;94851.03;2036258;29;20332;-65
2024/03/31 08:33:01;;;;;;;35.50;5.10;;;;;;;14.57;74.99;94854.47;2036947;29;20244;-65
2024/03/31 08:34:01;;;;;;;32.83;3.67;;;;;;;15.02;75.11;94849.50;2040578;29;20208;-66
2024/03/31 08:35:02;;;;;;;24.07;3.80;;;;;;;13.80;75.25;94854.13;2041107;28;20666;-65
2024/03/31 08:36:02;;;;;;;13.37;2.30;;;;;;;12.87;77.51;94853.97;2040079;29;20280;-65
2024/03/31 08:37:03;;;;;;;28.33;3.90;;;;;;;12.64;79.27;94858.47;2040943;28;20314;-65
2024/03/31 08:38:04;;;;;;;15.83;3.47;;;;;;;12.38;78.34;94854.38;2040216;28;20204;-65
2024/03/31 08:39:09;;;;;;;22.33;4.80;;;;;;;12.23;80.32;94847.75;2040040;29;20682;-64
2024/03/31 08:40:10;;;;;;;36.53;4.18;;;;;;;12.69;79.34;94848.44;2036307;29;20503;-64
2024/03/31 08:41:16;;;;;;;27.97;3.53;;;;;;;13.22;79.26;94850.22;2037636;29;20208;-65
2024/03/31 08:42:36;;;;;;;8.65;2.40;;;;;;;13.75;77.30;94843.19;2044113;28;20205;-65
2024/03/31 08:43:38;;;;;;;15.98;2.90;;;;;;;13.46;75.73;94842.09;2048658;29;20218;-64
2024/03/31 08:44:42;;;;;;;22.17;2.97;;;;;;;13.26;76.85;94838.50;2040157;28;20267;-65
2024/03/31 08:45:43;;;;;;;19.25;3.05;;;;;;;13.13;77.81;94843.94;2038812;29;20201;-65
2024/03/31 08:46:43;;;;;;;22.88;3.38;;;;;;;12.62;78.95;94837.66;2039851;29;20635;-65
2024/03/31 08:47:45;;;;;;;16.90;2.60;;;;;;;12.37;79.48;94839.63;2053620;28;20214;-65
2024/03/31 08:48:46;;;;;;;27.98;3.70;;;;;;;13.53;77.69;94829.28;2039175;29;20233;-65
2024/03/31 08:49:46;;;;;;;16.97;3.60;;;;;;;14.56;74.39;94837.03;2040020;28;20211;-65
2024/03/31 08:50:48;;;;;;;21.23;3.30;;;;;;;13.67;74.16;94841.22;2040748;29;20251;-65
2024/03/31 08:51:48;;;;;;;30.20;3.65;;;;;;;13.10;74.51;94840.75;2041403;29;20698;-65
2024/03/31 08:52:49;;;;;;;17.87;2.60;;;;;;;12.68;76.84;94837.13;2040988;29;20314;-64
2024/03/31 08:53:52;;;;;;;22.53;2.57;;;;;;;13.13;75.88;94832.63;2048122;29;20208;-65
2024/03/31 08:54:56;;;;;;;15.88;2.88;;;;;;;13.51;75.64;94833.81;2043362;29;20325;-64
2024/03/31 08:55:56;;;;;;;22.52;3.20;;;;;;;13.25;75.61;94815.88;2041262;29;20207;-65
2024/03/31 08:56:57;;;;;;;21.27;3.37;;;;;;;13.03;75.01;94816.84;2041059;29;20204;-65
2024/03/31 08:57:57;;;;;;;18.20;3.10;;;;;;;12.68;77.85;94812.75;2051139;28;20223;-65
2024/03/31 08:59:00;;;;;;;32.23;3.10;;;;;;;13.40;77.13;94811.16;2037807;29;20212;-65
2024/03/31 09:00:03;;;;;;;25.15;2.67;;;;;;;13.28;76.80;94818.25;2042110;28;20725;-66
2024/03/31 09:01:04;;;;;;;40.92;3.78;;;;;;;13.07;75.14;94820.88;2045009;29;20220;-65
2024/03/31 09:02:07;;;;;;;80.63;35.83;;;;;;;13.43;76.13;94824.00;2041353;29;20662;-65
2024/03/31 09:03:07;;;;;;;25.95;10.05;;;;;;;13.64;74.86;94818.72;2039706;29;20447;-65
2024/03/31 09:04:08;;;;;;;138.77;64.10;;;;;;;14.17;74.71;94822.03;2041375;28;20204;-66
2024/03/31 09:05:09;;;;;;;25.47;5.80;;;;;;;14.68;73.00;94817.59;2043363;28;20632;-66
2024/03/31 09:06:09;;;;;;;23.10;3.07;;;;;;;15.43;71.76;94815.13;2053519;28;20277;-65
2024/03/31 09:07:10;;;;;;;14.10;2.73;;;;;;;15.88;70.03;94812.78;2057541;28;20220;-66
2024/03/31 09:08:10;;;;;;;19.37;2.97;;;;;;;16.23;67.33;94814.66;2040592;29;20275;-66
2024/03/31 09:09:12;;;;;;;32.70;2.90;;;;;;;16.59;66.32;94813.84;2039325;29;20209;-66
2024/03/31 09:10:14;;;;;;;27.75;3.83;;;;;;;16.76;66.34;94813.03;2061460;28;20241;-65
2024/03/31 09:11:14;;;;;;;29.27;3.28;;;;;;;16.55;65.36;94804.59;2066308;28;20214;-66
2024/03/31 09:12:15;;;;;;;29.90;4.33;;;;;;;15.16;67.27;94794.84;2054775;28;20235;-66
2024/03/31 09:13:17;;;;;;;19.33;3.00;;;;;;;15.04;68.43;94788.91;2049042;28;20215;-66
2024/03/31 09:14:18;;;;;;;19.08;3.38;;;;;;;15.54;68.91;94792.25;2064660;28;20213;-66
2024/03/31 09:15:19;;;;;;;23.38;3.33;;;;;;;16.33;67.45;94788.25;2063982;28;20218;-66
2024/03/31 09:16:21;;;;;;;21.50;4.03;;;;;;;17.04;66.30;94791.03;2043927;28;20211;-66
2024/03/31 09:17:22;;;;;;;17.45;2.58;;;;;;;16.75;64.71;94786.84;2044172;28;20212;-66
2024/03/31 09:18:22;;;;;;;23.17;3.20;;;;;;;15.81;65.31;94792.28;2049929;28;20246;-66
2024/03/31 09:19:23;;;;;;;16.13;2.90;;;;;;;15.06;66.86;94797.50;2056198;28;20207;-67
2024/03/31 09:20:23;;;;;;;14.03;2.37;;;;;;;14.53;68.91;94796.13;2063968;28;20300;-66
2024/03/31 09:21:24;;;;;;;19.57;2.60;;;;;;;14.81;69.56;94791.03;2049841;28;20294;-66
2024/03/31 09:22:24;;;;;;;34.80;3.57;;;;;;;15.28;69.74;94793.69;2052471;28;20274;-66
2024/03/31 09:23:25;;;;;;;14.70;2.37;;;;;;;15.88;67.71;94789.91;2057936;28;20246;-67
2024/03/31 09:24:26;;;;;;;17.20;2.73;;;;;;;15.82;66.54;94790.47;2048508;28;20263;-66
2024/03/31 09:25:27;;;;;;;20.88;2.75;;;;;;;16.45;66.34;94784.41;2057856;28;20757;-66
2024/03/31 09:26:28;;;;;;;17.63;2.33;;;;;;;16.35;62.98;94796.81;2053751;28;20618;-65
2024/03/31 09:27:28;;;;;;;16.33;2.53;;;;;;;13.81;67.33;94784.94;2047114;28;20239;-66
2024/03/31 09:28:29;;;;;;;21.80;2.27;;;;;;;14.46;67.78;94798.47;2049200;28;20254;-66
2024/03/31 09:29:29;;;;;;;18.27;2.13;;;;;;;13.50;68.42;94787.63;2048957;28;20233;-66
2024/03/31 09:30:31;;;;;;;28.60;3.20;;;;;;;13.82;68.49;94786.63;2043080;28;20224;-67
2024/03/31 09:31:32;;;;;;;19.27;2.70;;;;;;;13.49;69.13;94785.94;2047661;29;20212;-67
2024/03/31 09:32:33;;;;;;;17.47;3.00;;;;;;;13.32;70.87;94784.72;2041553;29;20212;-67
2024/03/31 09:33:35;;;;;;;38.05;3.28;;;;;;;13.60;69.37;94778.00;2040526;29;20219;-67
2024/03/31 09:34:35;;;;;;;24.88;2.80;;;;;;;13.82;69.90;94769.06;2041148;28;20671;-67
2024/03/31 09:35:39;;;;;;;17.20;2.43;;;;;;;13.96;68.83;94767.84;2040452;29;20749;-67
2024/03/31 09:36:40;;;;;;;21.42;3.58;;;;;;;15.01;68.31;94763.75;2041458;29;20215;-67
2024/03/31 09:37:41;;;;;;;20.65;2.40;;;;;;;15.06;66.45;94754.59;2050725;28;20218;-66
2024/03/31 09:38:41;;;;;;;26.33;3.37;;;;;;;15.40;65.59;94759.34;2048705;28;20208;-67
2024/03/31 09:39:43;;;;;;;21.47;2.90;;;;;;;15.61;64.28;94752.06;2041617;28;20227;-67
2024/03/31 09:40:46;;;;;;;29.88;3.70;;;;;;;14.47;67.20;94752.84;2050362;28;20203;-67
2024/03/31 09:41:49;;;;;;;36.55;3.20;;;;;;;15.16;66.62;94761.50;2064525;28;20207;-67
2024/03/31 09:42:51;;;;;;;30.35;2.90;;;;;;;14.85;65.27;94743.31;2064161;28;20214;-67
2024/03/31 09:43:51;;;;;;;14.60;2.40;;;;;;;14.34;65.15;94747.06;2056229;28;20738;-69
2024/03/31 09:44:52;;;;;;;28.73;3.67;;;;;;;14.71;67.06;94741.13;2047965;28;20243;-68
2024/03/31 09:45:52;;;;;;;25.30;2.93;;;;;;;15.04;66.04;94736.34;2064098;28;20736;-69
2024/03/31 09:46:53;;;;;;;21.73;2.90;;;;;;;15.09;64.58;94720.16;2063468;28;20210;-67
2024/03/31 09:47:56;;;;;;;19.70;2.67;;;;;;;14.76;65.83;94724.94;2048662;28;20212;-68
2024/03/31 09:49:04;;;;;;;16.58;2.80;;;;;;;15.12;66.19;94728.59;2047729;28;20227;-67
2024/03/31 09:50:20;;;;;;;21.45;3.30;;;;;;;15.19;64.10;94742.81;2048933;28;20706;-67
2024/03/31 09:51:25;;;;;;;24.20;3.00;;;;;;;14.65;66.20;94757.44;2047886;28;20211;-68
2024/03/31 09:52:32;;;;;;;22.65;3.08;;;;;;;15.87;64.15;94754.06;2045403;28;20216;-68
2024/03/31 09:53:35;;;;;;;25.83;3.00;;;;;;;16.63;62.33;94762.50;2051055;28;20207;-67
2024/03/31 09:54:42;;;;;;;22.38;3.03;;;;;;;16.57;62.33;94757.84;2047706;28;20226;-68
2024/03/31 09:55:44;;;;;;;37.90;3.53;;;;;;;16.87;61.62;94764.50;2055131;28;20250;-68
2024/03/31 09:56:56;;;;;;;36.38;4.18;;;;;;;16.76;61.29;94762.13;2049093;28;20207;-67
2024/03/31 09:57:57;;;;;;;23.80;3.25;;;;;;;16.05;62.71;94763.75;2045004;28;20216;-68
2024/03/31 09:59:02;;;;;;;23.63;3.05;;;;;;;15.99;64.27;94762.56;2047939;28;20218;-68
2024/03/31 10:00:04;;;;;;;21.90;3.85;;;;;;;16.32;64.11;94761.09;2054167;28;20291;-67
2024/03/31 10:01:06;;;;;;;24.63;3.90;;;;;;;15.44;64.33;94758.91;2067925;28;20280;-68
2024/03/31 10:02:08;;;;;;;33.30;4.00;;;;;;;14.80;67.36;94739.44;2064104;28;20254;-68
2024/03/31 10:03:28;;;;;;;23.35;2.92;;;;;;;15.55;66.58;94739.47;2066285;28;20209;-68
2024/03/31 10:04:35;;;;;;;23.92;3.47;;;;;;;15.99;65.22;94741.50;2061379;28;20209;-68
2024/03/31 10:05:40;;;;;;;40.42;15.00;;;;;;;15.98;63.74;94745.91;2040872;28;20667;-67
2024/03/31 10:06:42;;;;;;;22.67;3.90;;;;;;;14.89;65.96;94740.41;2047534;28;20527;-67
2024/03/31 10:07:44;;;;;;;30.90;6.75;;;;;;;15.08;67.03;94739.53;2042723;29;20680;-68
2024/03/31 10:08:45;;;;;;;19.95;3.20;;;;;;;14.59;65.94;94750.06;2040157;29;20220;-68
2024/03/31 10:09:48;;;;;;;33.35;3.38;;;;;;;14.74;67.11;94756.63;2045328;28;20251;-68
2024/03/31 10:10:49;;;;;;;33.63;4.80;;;;;;;14.90;67.18;94763.09;2048762;28;20239;-70
2024/03/31 10:11:52;;;;;;;43.20;4.45;;;;;;;14.69;67.76;94757.03;2063808;28;20214;-67
2024/03/31 10:12:53;;;;;;;27.20;4.05;;;;;;;15.46;66.17;94769.28;2064715;28;20265;-67
2024/03/31 10:13:55;;;;;;;28.38;3.65;;;;;;;15.74;65.68;94756.16;2056131;28;20207;-67
2024/03/31 10:14:58;;;;;;;23.13;4.05;;;;;;;16.64;64.20;94764.16;2063447;28;20218;-68
2024/03/31 10:15:59;;;;;;;17.83;3.42;;;;;;;17.18;63.00;94758.84;2055959;28;20219;-68
2024/03/31 10:17:00;;;;;;;39.57;3.93;;;;;;;17.66;60.46;94743.44;2065091;28;20238;-68
2024/03/31 10:18:05;;;;;;;21.58;3.65;;;;;;;18.84;58.79;94757.56;2064545;28;20444;-68
2024/03/31 10:19:06;;;;;;;18.23;2.47;;;;;;;18.84;59.21;94754.91;2044790;28;20223;-67
2024/03/31 10:20:09;;;;;;;21.33;4.03;;;;;;;18.24;57.49;94754.19;2043883;28;20235;-67
2024/03/31 10:21:10;;;;;;;23.92;3.60;;;;;;;17.69;58.41;94744.94;2050173;28;20480;-67
2024/03/31 10:22:14;;;;;;;45.10;3.20;;;;;;;17.84;57.23;94750.41;2058941;28;20221;-67
2024/03/31 10:23:17;;;;;;;30.17;3.78;;;;;;;18.26;58.99;94746.94;2055712;28;20203;-68
2024/03/31 10:24:19;;;;;;;20.25;3.03;;;;;;;19.90;56.40;94748.59;2043464;29;20195;-67
2024/03/31 10:25:22;;;;;;;22.30;2.83;;;;;;;19.30;54.37;94738.53;2045520;28;20227;-67
2024/03/31 10:26:23;;;;;;;28.77;3.45;;;;;;;19.44;55.42;94750.22;2048325;28;20654;-68
2024/03/31 10:27:25;;;;;;;23.35;3.22;;;;;;;19.59;53.57;94745.88;2048770;28;21055;-68
2024/03/31 10:28:26;;;;;;;21.45;3.60;;;;;;;19.71;55.51;94746.34;2066544;28;20221;-68
2024/03/31 10:29:29;;;;;;;31.35;4.00;;;;;;;21.00;53.97;94745.94;2065379;28;20253;-68
2024/03/31 10:30:31;;;;;;;19.50;2.95;;;;;;;-145.49;100.00;55703.94;2049370;28;20227;-68
2024/03/31 10:31:35;;;;;;;24.50;3.00;;;;;;;-145.49;0.00;55703.94;2043181;29;20634;-68
2024/03/31 10:32:36;;;;;;;25.30;4.00;;;;;;;21.46;51.43;94729.09;2041689;28;20252;-68
2024/03/31 10:33:38;;;;;;;29.48;4.20;;;;;;;20.79;52.88;94723.56;2055911;28;20206;-68
2024/03/31 10:34:38;;;;;;;25.80;3.40;;;;;;;20.86;53.22;94726.31;2054417;28;20587;-68
2024/03/31 10:35:40;;;;;;;31.07;4.53;;;;;;;20.57;52.74;94719.91;2057096;28;20211;-68
2024/03/31 10:36:44;;;;;;;21.17;3.20;;;;;;;20.56;53.94;94723.56;2048390;28;20662;-68
2024/03/31 10:37:45;;;;;;;30.65;3.53;;;;;;;20.60;53.91;94722.19;2047822;28;20215;-68
2024/03/31 10:38:45;;;;;;;23.50;2.92;;;;;;;20.50;53.54;94717.13;2063844;28;20272;-68
2024/03/31 10:39:47;;;;;;;39.33;4.80;;;;;;;19.23;53.98;94709.28;2063416;28;20443;-66
2024/03/31 10:40:47;;;;;;;21.75;3.20;;;;;;;17.17;58.42;94720.28;2058086;28;20507;-66
2024/03/31 10:41:49;;;;;;;23.33;3.63;;;;;;;17.94;58.14;94709.75;2055285;28;20260;-69
2024/03/31 10:42:51;;;;;;;20.38;3.25;;;;;;;17.65;58.61;94714.53;2063216;28;20229;-67
2024/03/31 10:43:51;;;;;;;37.80;4.75;;;;;;;17.54;59.78;94716.47;2064687;28;20210;-67
2024/03/31 10:44:53;;;;;;;19.37;5.10;;;;;;;17.83;59.97;94717.91;2048005;28;20227;-68
2024/03/31 10:45:53;;;;;;;22.45;3.17;;;;;;;17.12;59.54;94717.28;2045883;28;20222;-68
2024/03/31 10:46:54;;;;;;;32.10;3.77;;;;;;;16.89;61.09;94719.56;2054745;28;20202;-67
2024/03/31 10:47:55;;;;;;;20.95;3.58;;;;;;;17.01;61.46;94715.72;2048277;28;20207;-68
2024/03/31 10:48:57;;;;;;;24.77;3.67;;;;;;;16.96;60.04;94717.97;2055207;28;20211;-68
2024/03/31 10:50:03;;;;;;;29.13;3.22;;;;;;;16.39;60.53;94719.19;2062890;28;20268;-68
2024/03/31 10:51:14;;;;;;;28.38;2.95;;;;;;;15.82;61.82;94715.00;2069884;28;20210;-68
2024/03/31 10:52:17;;;;;;;20.52;3.22;;;;;;;15.88;60.86;94710.13;2051106;28;20268;-68
2024/03/31 10:53:26;;;;;;;33.97;3.53;;;;;;;15.33;62.28;94709.13;2046948;28;20199;-67
2024/03/31 10:54:31;;;;;;;20.02;3.45;;;;;;;15.89;61.99;94717.06;2055371;28;20622;-67
2024/03/31 10:55:32;;;;;;;23.60;3.33;;;;;;;15.41;61.87;94711.84;2047059;28;20239;-67
2024/03/31 10:56:33;;;;;;;25.13;3.33;;;;;;;15.30;62.95;94706.78;2039994;29;20208;-67
2024/03/31 10:57:36;;;;;;;26.20;3.80;;;;;;;15.77;61.76;94711.13;2039494;29;20550;-67
2024/03/31 10:58:39;;;;;;;18.77;3.65;;;;;;;15.82;62.45;94711.53;2035023;29;20682;-67
2024/03/31 10:59:41;;;;;;;38.35;4.22;;;;;;;15.93;64.08;94713.97;2036332;28;20209;-68
2024/03/31 11:00:43;;;;;;;20.70;3.15;;;;;;;16.38;63.76;94698.25;2039977;29;20286;-68
2024/03/31 11:01:45;;;;;;;28.40;4.40;;;;;;;16.69;63.14;94703.94;2041369;29;20218;-68
2024/03/31 11:02:49;;;;;;;37.30;4.40;;;;;;;16.89;62.93;94698.50;2042694;29;20242;-68
2024/03/31 11:03:49;;;;;;;26.77;3.47;;;;;;;16.33;62.62;94706.63;2034257;29;20209;-68
2024/03/31 11:05:04;;;;;;;39.37;3.73;;;;;;;16.78;62.38;94702.19;2032503;29;20304;-68
2024/03/31 11:06:06;;;;;;;21.00;3.30;;;;;;;16.98;61.89;94697.56;2041274;28;20227;-68
2024/03/31 11:07:10;;;;;;;14.63;2.72;;;;;;;17.10;60.84;94698.97;2050487;28;20213;-68
2024/03/31 11:08:10;;;;;;;27.83;3.72;;;;;;;16.92;61.30;94701.66;2044367;29;20211;-68
2024/03/31 11:09:12;;;;;;;19.50;2.90;;;;;;;17.07;61.89;94703.72;2048426;28;20207;-68
2024/03/31 11:10:14;;;;;;;24.50;4.47;;;;;;;17.19;60.84;94701.66;2041018;28;20242;-68
2024/03/31 11:11:14;;;;;;;17.90;3.05;;;;;;;17.32;61.04;94695.94;2049534;28;20211;-68
2024/03/31 11:12:15;;;;;;;38.90;4.77;;;;;;;17.38;60.85;94693.50;2041244;28;20212;-68
2024/03/31 11:13:18;;;;;;;26.77;3.70;;;;;;;17.55;60.75;94697.03;2041858;29;20465;-68
2024/03/31 11:14:23;;;;;;;27.70;4.03;;;;;;;17.52;59.72;94697.38;2049832;28;20333;-68
2024/03/31 11:15:26;;;;;;;18.85;2.97;;;;;;;16.81;61.61;94697.44;2040746;28;20236;-68
2024/03/31 11:16:27;;;;;;;28.70;3.45;;;;;;;16.57;63.59;94699.88;2040371;29;20224;-68
2024/03/31 11:17:30;;;;;;;22.13;3.60;;;;;;;17.14;62.98;94695.03;2038983;29;20231;-68
2024/03/31 11:18:32;;;;;;;20.98;4.60;;;;;;;17.39;61.82;94691.69;2041120;28;20215;-68
2024/03/31 11:19:32;;;;;;;13.82;3.47;;;;;;;17.60;61.84;94694.75;2039135;29;20220;-68
2024/03/31 11:20:42;;;;;;;26.07;3.47;;;;;;;17.76;60.17;94691.34;2034115;29;20225;-68
2024/03/31 11:21:43;;;;;;;36.20;4.00;;;;;;;17.72;60.13;94684.72;2041909;28;20271;-69
2024/03/31 11:22:43;;;;;;;52.43;5.80;;;;;;;17.44;61.44;94684.94;2041714;29;20200;-68
2024/03/31 11:23:44;;;;;;;26.07;4.80;;;;;;;17.41;62.24;94684.47;2042452;29;20446;-69
2024/03/31 11:24:45;;;;;;;36.80;7.33;;;;;;;17.48;62.09;94680.19;2040192;28;20204;-69
2024/03/31 11:25:46;;;;;;;25.43;5.77;;;;;;;17.55;62.19;94686.47;2047345;29;20212;-69
2024/03/31 11:26:47;;;;;;;46.58;8.57;;;;;;;17.62;62.40;94684.88;2039743;29;20200;-68
2024/03/31 11:27:49;;;;;;;24.80;7.82;;;;;;;17.69;61.87;94684.22;2048481;28;20259;-69
2024/03/31 11:28:54;;;;;;;43.15;6.18;;;;;;;17.43;61.21;94675.41;2040233;28;20259;-68
2024/03/31 11:29:55;;;;;;;51.75;10.00;;;;;;;17.65;61.77;94683.72;2040853;28;20228;-69
2024/03/31 11:30:57;;;;;;;34.27;5.83;;;;;;;17.73;60.90;94682.91;2035549;29;20221;-68
2024/03/31 11:31:59;;;;;;;23.88;4.70;;;;;;;17.66;59.82;94680.09;2035352;29;20455;-67
2024/03/31 11:33:04;;;;;;;24.58;3.55;;;;;;;17.03;60.20;94681.31;2041793;29;20212;-67
2024/03/31 11:34:07;;;;;;;26.10;3.17;;;;;;;16.96;60.78;94681.94;2040084;29;20209;-67
2024/03/31 11:35:08;;;;;;;27.67;4.70;;;;;;;16.90;59.78;94677.25;2039494;28;20227;-67
2024/03/31 11:36:09;;;;;;;30.60;4.05;;;;;;;16.29;62.14;94678.91;2040233;29;20213;-67
2024/03/31 11:37:09;;;;;;;22.98;4.97;;;;;;;17.07;62.29;94666.81;2039360;29;20650;-67
2024/03/31 11:38:13;;;;;;;28.40;3.80;;;;;;;18.15;60.87;94678.59;2039348;29;20550;-67
2024/03/31 11:39:14;;;;;;;27.67;3.67;;;;;;;18.72;59.37;94667.19;2031801;29;20309;-67
2024/03/31 11:40:15;;;;;;;24.98;4.32;;;;;;;19.73;57.28;94671.06;2038680;28;20235;-67
2024/03/31 11:41:16;;;;;;;34.10;4.37;;;;;;;20.01;56.59;94672.41;2039272;29;20254;-67
2024/03/31 11:42:16;;;;;;;27.70;5.17;;;;;;;20.25;55.67;94676.72;2049614;28;20239;-67
2024/03/31 11:43:17;;;;;;;45.30;4.30;;;;;;;20.85;54.50;94674.31;2034439;29;20762;-67
2024/03/31 11:44:17;;;;;;;26.00;5.20;;;;;;;21.35;53.29;94671.97;2034029;29;20209;-67
2024/03/31 11:45:18;;;;;;;25.13;5.00;;;;;;;21.36;52.75;94686.88;2040339;28;20672;-68